sensor_id;sensor_type;location;lat;lon;timestamp;pressure;altitude;pressure_sealevel;temperature;humidity
65880;BME280;52661;51.364;6.054;2023-05-23T00:01:57;101416.69;;;15.72;100.00
65880;BME280;52661;51.364;6.054;2023-05-23T00:04:23;101417.50;;;15.69;100.00
65880;BME280;52661;51.364;6.054;2023-05-23T00:06:51;101413.97;;;15.68;100.00
65880;BME280;52661;51.364;6.054;2023-05-23T00:09:17;101417.03;;;15.74;100.00
65880;BME280;52661;51.364;6.054;2023-05-23T00:11:43;101411.25;;;15.68;100.00
65880;BME280;52661;51.364;6.054;2023-05-23T00:14:12;101413.16;;;15.71;100.00
65880;BME280;52661;51.364;6.054;2023-05-23T00:16:42;101412.84;;;15.66;100.00
65880;BME280;52661;51.364;6.054;2023-05-23T00:19:12;101412.09;;;15.62;100.00
65880;BME280;52661;51.364;6.054;2023-05-23T00:21:45;101426.53;;;15.66;100.00
65880;BME280;52661;51.364;6.054;2023-05-23T00:24:15;101416.38;;;15.63;100.00
65880;BME280;52661;51.364;6.054;2023-05-23T00:26:43;101423.34;;;15.71;100.00
65880;BME280;52661;51.364;6.054;2023-05-23T00:29:08;101425.34;;;15.63;100.00
65880;BME280;52661;51.364;6.054;2023-05-23T00:31:39;101431.13;;;15.76;100.00
65880;BME280;52661;51.364;6.054;2023-05-23T00:34:05;101424.78;;;15.83;100.00
65880;BME280;52661;51.364;6.054;2023-05-23T00:36:30;101439.75;;;15.71;100.00
65880;BME280;52661;51.364;6.054;2023-05-23T00:39:00;101435.50;;;15.66;100.00
65880;BME280;52661;51.364;6.054;2023-05-23T00:41:26;101432.78;;;15.63;100.00
65880;BME280;52661;51.364;6.054;2023-05-23T00:43:55;101433.81;;;15.80;100.00
65880;BME280;52661;51.364;6.054;2023-05-23T00:46:22;101434.88;;;15.52;100.00
65880;BME280;52661;51.364;6.054;2023-05-23T00:48:47;101449.28;;;15.56;100.00
65880;BME280;52661;51.364;6.054;2023-05-23T00:51:13;101438.59;;;15.72;100.00
65880;BME280;52661;51.364;6.054;2023-05-23T00:53:39;101431.63;;;15.64;100.00
65880;BME280;52661;51.364;6.054;2023-05-23T00:56:04;101438.34;;;15.52;100.00
65880;BME280;52661;51.364;6.054;2023-05-23T00:58:30;101438.75;;;15.54;100.00
65880;BME280;52661;51.364;6.054;2023-05-23T01:00:56;101440.69;;;15.54;100.00
65880;BME280;52661;51.364;6.054;2023-05-23T01:03:21;101448.94;;;15.47;100.00
65880;BME280;52661;51.364;6.054;2023-05-23T01:05:47;101444.66;;;15.49;100.00
65880;BME280;52661;51.364;6.054;2023-05-23T01:08:13;101445.03;;;15.48;100.00
65880;BME280;52661;51.364;6.054;2023-05-23T01:10:40;101453.25;;;15.48;100.00
65880;BME280;52661;51.364;6.054;2023-05-23T01:18:39;101449.72;;;15.47;100.00
65880;BME280;52661;51.364;6.054;2023-05-23T01:21:16;101454.47;;;15.40;100.00
65880;BME280;52661;51.364;6.054;2023-05-23T01:27:08;101451.31;;;15.41;100.00
65880;BME280;52661;51.364;6.054;2023-05-23T01:29:44;101459.78;;;15.61;100.00
65880;BME280;52661;51.364;6.054;2023-05-23T01:32:11;101457.13;;;15.54;100.00
65880;BME280;52661;51.364;6.054;2023-05-23T01:34:40;101452.69;;;15.67;100.00
65880;BME280;52661;51.364;6.054;2023-05-23T01:37:10;101453.81;;;15.73;100.00
65880;BME280;52661;51.364;6.054;2023-05-23T01:39:36;101453.75;;;15.80;100.00
65880;BME280;52661;51.364;6.054;2023-05-23T01:42:03;101454.19;;;15.75;100.00
65880;BME280;52661;51.364;6.054;2023-05-23T01:44:29;101454.28;;;15.64;100.00
65880;BME280;52661;51.364;6.054;2023-05-23T01:46:55;101449.63;;;15.61;100.00
65880;BME280;52661;51.364;6.054;2023-05-23T01:49:21;101451.59;;;15.61;100.00
65880;BME280;52661;51.364;6.054;2023-05-23T01:51:47;101450.31;;;15.72;100.00
65880;BME280;52661;51.364;6.054;2023-05-23T01:54:14;101452.63;;;15.74;100.00
65880;BME280;52661;51.364;6.054;2023-05-23T01:56:43;101457.00;;;15.68;100.00
65880;BME280;52661;51.364;6.054;2023-05-23T01:59:09;101452.59;;;15.77;100.00
65880;BME280;52661;51.364;6.054;2023-05-23T02:01:36;101458.25;;;15.56;100.00
65880;BME280;52661;51.364;6.054;2023-05-23T02:04:02;101468.34;;;15.66;100.00
65880;BME280;52661;51.364;6.054;2023-05-23T02:06:28;101463.44;;;15.44;100.00
65880;BME280;52661;51.364;6.054;2023-05-23T02:08:53;101468.19;;;15.36;100.00
65880;BME280;52661;51.364;6.054;2023-05-23T02:11:19;101465.81;;;15.38;100.00
65880;BME280;52661;51.364;6.054;2023-05-23T02:13:44;101462.78;;;15.25;100.00
65880;BME280;52661;51.364;6.054;2023-05-23T02:16:09;101469.78;;;15.30;100.00
65880;BME280;52661;51.364;6.054;2023-05-23T02:18:35;101480.41;;;15.17;100.00
65880;BME280;52661;51.364;6.054;2023-05-23T02:21:03;101480.47;;;15.10;100.00
65880;BME280;52661;51.364;6.054;2023-05-23T02:23:29;101477.75;;;15.07;100.00
65880;BME280;52661;51.364;6.054;2023-05-23T02:25:54;101479.66;;;15.13;100.00
65880;BME280;52661;51.364;6.054;2023-05-23T02:28:20;101479.72;;;15.06;100.00
65880;BME280;52661;51.364;6.054;2023-05-23T02:30:45;101482.16;;;14.94;100.00
65880;BME280;52661;51.364;6.054;2023-05-23T02:33:10;101482.88;;;14.98;100.00
65880;BME280;52661;51.364;6.054;2023-05-23T02:35:36;101485.97;;;15.07;100.00
65880;BME280;52661;51.364;6.054;2023-05-23T02:38:01;101487.09;;;15.09;100.00
65880;BME280;52661;51.364;6.054;2023-05-23T02:40:26;101494.56;;;15.02;100.00
65880;BME280;52661;51.364;6.054;2023-05-23T02:42:52;101491.91;;;14.91;100.00
65880;BME280;52661;51.364;6.054;2023-05-23T02:45:17;101498.97;;;14.85;100.00
65880;BME280;52661;51.364;6.054;2023-05-23T02:47:42;101499.78;;;14.82;100.00
65880;BME280;52661;51.364;6.054;2023-05-23T02:50:08;101497.84;;;14.79;100.00
65880;BME280;52661;51.364;6.054;2023-05-23T02:52:34;101497.38;;;14.91;100.00
65880;BME280;52661;51.364;6.054;2023-05-23T02:54:59;101503.63;;;14.88;100.00
65880;BME280;52661;51.364;6.054;2023-05-23T02:57:25;101505.22;;;14.86;100.00
65880;BME280;52661;51.364;6.054;2023-05-23T02:59:50;101497.75;;;14.93;100.00
65880;BME280;52661;51.364;6.054;2023-05-23T03:02:16;101500.16;;;14.77;100.00
65880;BME280;52661;51.364;6.054;2023-05-23T03:04:41;101507.84;;;15.03;100.00
65880;BME280;52661;51.364;6.054;2023-05-23T03:07:06;101505.13;;;15.03;100.00
65880;BME280;52661;51.364;6.054;2023-05-23T03:09:32;101506.31;;;14.99;100.00
65880;BME280;52661;51.364;6.054;2023-05-23T03:11:57;101509.03;;;14.99;100.00
65880;BME280;52661;51.364;6.054;2023-05-23T03:14:22;101506.34;;;14.92;100.00
65880;BME280;52661;51.364;6.054;2023-05-23T03:16:48;101508.75;;;14.79;100.00
65880;BME280;52661;51.364;6.054;2023-05-23T03:19:13;101505.66;;;14.70;100.00
65880;BME280;52661;51.364;6.054;2023-05-23T03:21:38;101517.31;;;14.88;100.00
65880;BME280;52661;51.364;6.054;2023-05-23T03:24:05;101514.19;;;14.90;100.00
65880;BME280;52661;51.364;6.054;2023-05-23T03:26:31;101508.00;;;14.75;100.00
65880;BME280;52661;51.364;6.054;2023-05-23T03:28:56;101513.78;;;14.88;100.00
65880;BME280;52661;51.364;6.054;2023-05-23T03:31:22;101509.88;;;14.89;100.00
65880;BME280;52661;51.364;6.054;2023-05-23T03:33:47;101521.88;;;15.05;100.00
65880;BME280;52661;51.364;6.054;2023-05-23T03:36:12;101521.19;;;14.87;100.00
65880;BME280;52661;51.364;6.054;2023-05-23T03:38:38;101509.56;;;14.69;100.00
65880;BME280;52661;51.364;6.054;2023-05-23T03:41:03;101508.34;;;14.81;100.00
65880;BME280;52661;51.364;6.054;2023-05-23T03:43:28;101512.63;;;14.89;100.00
65880;BME280;52661;51.364;6.054;2023-05-23T03:45:54;101510.34;;;14.69;100.00
65880;BME280;52661;51.364;6.054;2023-05-23T03:48:19;101524.81;;;14.63;100.00
65880;BME280;52661;51.364;6.054;2023-05-23T03:50:45;101527.25;;;14.47;100.00
65880;BME280;52661;51.364;6.054;2023-05-23T03:53:10;101536.97;;;14.48;100.00
65880;BME280;52661;51.364;6.054;2023-05-23T03:55:37;101539.34;;;14.42;100.00
65880;BME280;52661;51.364;6.054;2023-05-23T03:58:03;101535.44;;;14.47;100.00
65880;BME280;52661;51.364;6.054;2023-05-23T04:00:28;101538.91;;;14.54;100.00
65880;BME280;52661;51.364;6.054;2023-05-23T04:02:53;101547.09;;;14.47;100.00
65880;BME280;52661;51.364;6.054;2023-05-23T04:05:19;101547.50;;;14.53;100.00
65880;BME280;52661;51.364;6.054;2023-05-23T04:07:45;101549.03;;;14.61;100.00
65880;BME280;52661;51.364;6.054;2023-05-23T04:10:11;101540.84;;;14.61;100.00
65880;BME280;52661;51.364;6.054;2023-05-23T04:12:37;101550.19;;;14.67;100.00
65880;BME280;52661;51.364;6.054;2023-05-23T04:15:06;101554.81;;;14.77;100.00
65880;BME280;52661;51.364;6.054;2023-05-23T04:17:31;101542.34;;;14.69;100.00
65880;BME280;52661;51.364;6.054;2023-05-23T04:19:57;101547.81;;;14.69;100.00
65880;BME280;52661;51.364;6.054;2023-05-23T04:22:22;101554.09;;;14.66;100.00
65880;BME280;52661;51.364;6.054;2023-05-23T04:24:48;101550.97;;;14.64;100.00
65880;BME280;52661;51.364;6.054;2023-05-23T04:27:13;101552.50;;;14.75;100.00
65880;BME280;52661;51.364;6.054;2023-05-23T04:29:38;101560.31;;;14.73;100.00
65880;BME280;52661;51.364;6.054;2023-05-23T04:32:05;101555.25;;;14.75;100.00
65880;BME280;52661;51.364;6.054;2023-05-23T04:34:33;101558.75;;;14.69;100.00
65880;BME280;52661;51.364;6.054;2023-05-23T04:36:59;101563.47;;;14.68;100.00
65880;BME280;52661;51.364;6.054;2023-05-23T04:39:29;101564.25;;;14.62;100.00
65880;BME280;52661;51.364;6.054;2023-05-23T04:41:55;101572.81;;;14.74;100.00
65880;BME280;52661;51.364;6.054;2023-05-23T04:44:24;101560.34;;;14.59;100.00
65880;BME280;52661;51.364;6.054;2023-05-23T04:46:50;101567.03;;;14.41;100.00
65880;BME280;52661;51.364;6.054;2023-05-23T04:49:16;101560.75;;;14.54;100.00
65880;BME280;52661;51.364;6.054;2023-05-23T04:51:42;101561.91;;;14.60;100.00
65880;BME280;52661;51.364;6.054;2023-05-23T04:54:07;101564.72;;;14.39;100.00
65880;BME280;52661;51.364;6.054;2023-05-23T04:56:33;101569.38;;;14.46;100.00
65880;BME280;52661;51.364;6.054;2023-05-23T04:58:58;101563.91;;;14.42;100.00
65880;BME280;52661;51.364;6.054;2023-05-23T05:01:23;101575.22;;;14.41;100.00
65880;BME280;52661;51.364;6.054;2023-05-23T05:03:49;101580.69;;;14.37;100.00
65880;BME280;52661;51.364;6.054;2023-05-23T05:06:15;101581.47;;;14.30;100.00
65880;BME280;52661;51.364;6.054;2023-05-23T05:08:41;101577.16;;;14.40;100.00
65880;BME280;52661;51.364;6.054;2023-05-23T05:11:07;101575.97;;;14.52;100.00
65880;BME280;52661;51.364;6.054;2023-05-23T05:13:33;101579.91;;;14.37;100.00
65880;BME280;52661;51.364;6.054;2023-05-23T05:15:58;101588.50;;;14.39;100.00
65880;BME280;52661;51.364;6.054;2023-05-23T05:18:27;101588.50;;;14.35;100.00
65880;BME280;52661;51.364;6.054;2023-05-23T05:20:52;101588.88;;;14.37;100.00
65880;BME280;52661;51.364;6.054;2023-05-23T05:23:18;101586.56;;;14.43;100.00
65880;BME280;52661;51.364;6.054;2023-05-23T05:25:43;101596.28;;;14.51;100.00
65880;BME280;52661;51.364;6.054;2023-05-23T05:28:09;101591.22;;;14.53;100.00
65880;BME280;52661;51.364;6.054;2023-05-23T05:30:34;101587.69;;;14.49;100.00
65880;BME280;52661;51.364;6.054;2023-05-23T05:33:00;101599.00;;;14.54;100.00
65880;BME280;52661;51.364;6.054;2023-05-23T05:35:29;101599.38;;;14.63;100.00
65880;BME280;52661;51.364;6.054;2023-05-23T05:37:55;101595.44;;;14.78;100.00
65880;BME280;52661;51.364;6.054;2023-05-23T05:40:21;101604.44;;;14.75;100.00
65880;BME280;52661;51.364;6.054;2023-05-23T05:42:46;101600.53;;;14.69;100.00
65880;BME280;52661;51.364;6.054;2023-05-23T05:45:11;101596.22;;;14.75;100.00
65880;BME280;52661;51.364;6.054;2023-05-23T05:47:37;101599.34;;;14.74;100.00
65880;BME280;52661;51.364;6.054;2023-05-23T05:50:04;101595.88;;;14.63;100.00
65880;BME280;52661;51.364;6.054;2023-05-23T05:52:29;101601.38;;;14.27;100.00
65880;BME280;52661;51.364;6.054;2023-05-23T05:54:55;101596.28;;;14.44;100.00
65880;BME280;52661;51.364;6.054;2023-05-23T05:57:21;101604.88;;;14.56;100.00
65880;BME280;52661;51.364;6.054;2023-05-23T05:59:47;101606.03;;;14.59;100.00
65880;BME280;52661;51.364;6.054;2023-05-23T06:02:12;101604.88;;;14.53;100.00
65880;BME280;52661;51.364;6.054;2023-05-23T06:04:37;101613.88;;;14.46;100.00
65880;BME280;52661;51.364;6.054;2023-05-23T06:07:03;101607.97;;;14.55;100.00
65880;BME280;52661;51.364;6.054;2023-05-23T06:09:28;101613.84;;;14.50;100.00
65880;BME280;52661;51.364;6.054;2023-05-23T06:11:53;101617.75;;;14.49;100.00
65880;BME280;52661;51.364;6.054;2023-05-23T06:14:19;101622.44;;;14.38;100.00
65880;BME280;52661;51.364;6.054;2023-05-23T06:16:44;101620.47;;;14.27;100.00
65880;BME280;52661;51.364;6.054;2023-05-23T06:19:09;101624.03;;;14.35;100.00
65880;BME280;52661;51.364;6.054;2023-05-23T06:21:35;101627.53;;;14.43;100.00
65880;BME280;52661;51.364;6.054;2023-05-23T06:24:00;101635.72;;;14.43;100.00
65880;BME280;52661;51.364;6.054;2023-05-23T06:26:25;101633.78;;;14.47;100.00
65880;BME280;52661;51.364;6.054;2023-05-23T06:28:51;101639.63;;;14.35;100.00
65880;BME280;52661;51.364;6.054;2023-05-23T06:31:17;101641.94;;;14.36;100.00
65880;BME280;52661;51.364;6.054;2023-05-23T06:33:42;101640.41;;;14.46;100.00
65880;BME280;52661;51.364;6.054;2023-05-23T06:36:07;101640.00;;;14.37;100.00
65880;BME280;52661;51.364;6.054;2023-05-23T06:38:32;101657.94;;;14.16;100.00
65880;BME280;52661;51.364;6.054;2023-05-23T06:40:58;101640.38;;;13.96;100.00
65880;BME280;52661;51.364;6.054;2023-05-23T06:43:24;101657.88;;;13.70;100.00
65880;BME280;52661;51.364;6.054;2023-05-23T06:45:49;101654.38;;;13.77;100.00
65880;BME280;52661;51.364;6.054;2023-05-23T06:48:15;101650.47;;;13.74;100.00
65880;BME280;52661;51.364;6.054;2023-05-23T06:50:40;101656.69;;;13.78;100.00
65880;BME280;52661;51.364;6.054;2023-05-23T06:53:06;101659.44;;;13.93;100.00
65880;BME280;52661;51.364;6.054;2023-05-23T06:55:32;101669.97;;;13.80;100.00
65880;BME280;52661;51.364;6.054;2023-05-23T06:57:58;101675.75;;;13.61;100.00
65880;BME280;52661;51.364;6.054;2023-05-23T07:00:24;101670.69;;;13.49;100.00
65880;BME280;52661;51.364;6.054;2023-05-23T07:02:49;101678.47;;;13.50;100.00
65880;BME280;52661;51.364;6.054;2023-05-23T07:05:15;101683.50;;;13.41;100.00
65880;BME280;52661;51.364;6.054;2023-05-23T07:07:41;101681.56;;;13.42;100.00
65880;BME280;52661;51.364;6.054;2023-05-23T07:10:07;101684.66;;;13.40;100.00
65880;BME280;52661;51.364;6.054;2023-05-23T07:12:33;101688.56;;;13.43;100.00
65880;BME280;52661;51.364;6.054;2023-05-23T07:14:58;101679.22;;;13.40;100.00
65880;BME280;52661;51.364;6.054;2023-05-23T07:17:23;101681.91;;;13.33;100.00
65880;BME280;52661;51.364;6.054;2023-05-23T07:19:49;101691.28;;;13.46;100.00
65880;BME280;52661;51.364;6.054;2023-05-23T07:22:15;101698.69;;;13.46;100.00
65880;BME280;52661;51.364;6.054;2023-05-23T07:24:40;101696.38;;;13.48;100.00
65880;BME280;52661;51.364;6.054;2023-05-23T07:27:06;101699.88;;;13.45;100.00
65880;BME280;52661;51.364;6.054;2023-05-23T07:29:31;101710.38;;;13.46;100.00
65880;BME280;52661;51.364;6.054;2023-05-23T07:31:57;101705.69;;;13.40;100.00
65880;BME280;52661;51.364;6.054;2023-05-23T07:34:23;101693.19;;;13.35;100.00
65880;BME280;52661;51.364;6.054;2023-05-23T07:36:48;101704.91;;;13.39;100.00
65880;BME280;52661;51.364;6.054;2023-05-23T07:39:14;101709.59;;;13.46;100.00
65880;BME280;52661;51.364;6.054;2023-05-23T07:41:39;101708.13;;;13.66;100.00
65880;BME280;52661;51.364;6.054;2023-05-23T07:44:05;101703.47;;;13.70;100.00
65880;BME280;52661;51.364;6.054;2023-05-23T07:46:31;101718.66;;;13.67;100.00
65880;BME280;52661;51.364;6.054;2023-05-23T07:48:56;101713.25;;;13.74;100.00
65880;BME280;52661;51.364;6.054;2023-05-23T07:51:21;101720.22;;;13.68;100.00
65880;BME280;52661;51.364;6.054;2023-05-23T07:53:47;101729.97;;;13.66;100.00
65880;BME280;52661;51.364;6.054;2023-05-23T07:56:12;101734.94;;;13.50;100.00
65880;BME280;52661;51.364;6.054;2023-05-23T07:58:38;101730.66;;;13.45;100.00
65880;BME280;52661;51.364;6.054;2023-05-23T08:01:03;101730.16;;;13.25;100.00
65880;BME280;52661;51.364;6.054;2023-05-23T08:03:29;101725.03;;;13.17;100.00
65880;BME280;52661;51.364;6.054;2023-05-23T08:05:54;101732.50;;;13.23;100.00
65880;BME280;52661;51.364;6.054;2023-05-23T08:08:20;101724.31;;;13.23;100.00
65880;BME280;52661;51.364;6.054;2023-05-23T08:10:45;101744.97;;;13.28;100.00
65880;BME280;52661;51.364;6.054;2023-05-23T08:13:11;101741.94;;;13.40;100.00
65880;BME280;52661;51.364;6.054;2023-05-23T08:15:36;101741.59;;;13.49;100.00
65880;BME280;52661;51.364;6.054;2023-05-23T08:18:03;101746.31;;;13.59;100.00
65880;BME280;52661;51.364;6.054;2023-05-23T08:20:29;101746.25;;;13.48;100.00
65880;BME280;52661;51.364;6.054;2023-05-23T08:22:58;101755.22;;;13.45;100.00
65880;BME280;52661;51.364;6.054;2023-05-23T08:25:24;101756.72;;;13.43;100.00
65880;BME280;52661;51.364;6.054;2023-05-23T08:27:50;101757.97;;;13.52;100.00
65880;BME280;52661;51.364;6.054;2023-05-23T08:30:15;101755.97;;;13.49;100.00
65880;BME280;52661;51.364;6.054;2023-05-23T08:32:41;101766.13;;;13.49;100.00
65880;BME280;52661;51.364;6.054;2023-05-23T08:35:06;101762.59;;;13.41;100.00
65880;BME280;52661;51.364;6.054;2023-05-23T08:37:32;101760.25;;;13.47;100.00
65880;BME280;52661;51.364;6.054;2023-05-23T08:39:57;101772.81;;;13.62;100.00
65880;BME280;52661;51.364;6.054;2023-05-23T08:42:23;101766.59;;;13.68;100.00
65880;BME280;52661;51.364;6.054;2023-05-23T08:44:48;101768.59;;;13.82;100.00
65880;BME280;52661;51.364;6.054;2023-05-23T08:47:15;101766.69;;;13.93;100.00
65880;BME280;52661;51.364;6.054;2023-05-23T08:49:42;101762.81;;;14.05;100.00
65880;BME280;52661;51.364;6.054;2023-05-23T08:52:09;101776.88;;;14.00;100.00
65880;BME280;52661;51.364;6.054;2023-05-23T08:54:36;101772.19;;;14.11;100.00
65880;BME280;52661;51.364;6.054;2023-05-23T08:57:01;101769.09;;;14.23;100.00
65880;BME280;52661;51.364;6.054;2023-05-23T08:59:27;101774.91;;;14.14;100.00
65880;BME280;52661;51.364;6.054;2023-05-23T09:01:54;101772.97;;;14.18;100.00
65880;BME280;52661;51.364;6.054;2023-05-23T09:04:21;101769.13;;;14.34;100.00
65880;BME280;52661;51.364;6.054;2023-05-23T09:06:46;101774.25;;;14.77;100.00
65880;BME280;52661;51.364;6.054;2023-05-23T09:09:11;101772.63;;;15.22;100.00
65880;BME280;52661;51.364;6.054;2023-05-23T09:11:38;101777.25;;;15.43;100.00
65880;BME280;52661;51.364;6.054;2023-05-23T09:14:03;101766.75;;;15.27;100.00
65880;BME280;52661;51.364;6.054;2023-05-23T09:16:32;101774.91;;;15.42;100.00
65880;BME280;52661;51.364;6.054;2023-05-23T09:19:09;101771.34;;;15.66;100.00
65880;BME280;52661;51.364;6.054;2023-05-23T09:21:35;101784.31;;;15.41;100.00
65880;BME280;52661;51.364;6.054;2023-05-23T09:24:00;101790.22;;;15.11;100.00
65880;BME280;52661;51.364;6.054;2023-05-23T09:26:26;101795.31;;;14.98;100.00
65880;BME280;52661;51.364;6.054;2023-05-23T09:28:56;101788.31;;;15.01;100.00
65880;BME280;52661;51.364;6.054;2023-05-23T09:31:25;101784.78;;;15.04;100.00
65880;BME280;52661;51.364;6.054;2023-05-23T09:33:50;101788.28;;;15.15;100.00
65880;BME280;52661;51.364;6.054;2023-05-23T09:36:16;101780.84;;;15.01;100.00
65880;BME280;52661;51.364;6.054;2023-05-23T09:38:43;101791.41;;;15.10;100.00
65880;BME280;52661;51.364;6.054;2023-05-23T09:41:10;101789.06;;;15.12;100.00
65880;BME280;52661;51.364;6.054;2023-05-23T09:43:48;101789.47;;;15.03;100.00
65880;BME280;52661;51.364;6.054;2023-05-23T09:46:14;101790.25;;;14.97;100.00
65880;BME280;52661;51.364;6.054;2023-05-23T09:48:45;101794.53;;;15.15;100.00
65880;BME280;52661;51.364;6.054;2023-05-23T09:51:11;101794.91;;;15.21;100.00
65880;BME280;52661;51.364;6.054;2023-05-23T09:53:36;101800.78;;;14.98;100.00
65880;BME280;52661;51.364;6.054;2023-05-23T09:56:02;101787.53;;;14.86;100.00
65880;BME280;52661;51.364;6.054;2023-05-23T09:58:28;101794.16;;;14.85;100.00
65880;BME280;52661;51.364;6.054;2023-05-23T10:00:58;101787.53;;;14.93;100.00
65880;BME280;52661;51.364;6.054;2023-05-23T10:03:34;101797.28;;;15.08;100.00
65880;BME280;52661;51.364;6.054;2023-05-23T10:06:07;101808.59;;;15.14;100.00
65880;BME280;52661;51.364;6.054;2023-05-23T10:08:40;101800.34;;;15.35;100.00
65880;BME280;52661;51.364;6.054;2023-05-23T10:13:48;101797.25;;;15.05;100.00
65880;BME280;52661;51.364;6.054;2023-05-23T10:16:18;101807.44;;;15.01;100.00
65880;BME280;52661;51.364;6.054;2023-05-23T10:18:48;101800.78;;;14.91;100.00
65880;BME280;52661;51.364;6.054;2023-05-23T10:21:25;101805.84;;;15.07;100.00
65880;BME280;52661;51.364;6.054;2023-05-23T10:23:58;101803.50;;;14.98;100.00
65880;BME280;52661;51.364;6.054;2023-05-23T10:26:23;101817.59;;;14.93;100.00
65880;BME280;52661;51.364;6.054;2023-05-23T10:28:50;101800.78;;;14.88;100.00
65880;BME280;52661;51.364;6.054;2023-05-23T10:31:17;101815.63;;;15.11;100.00
65880;BME280;52661;51.364;6.054;2023-05-23T10:33:52;101814.41;;;15.41;100.00
65880;BME280;52661;51.364;6.054;2023-05-23T10:36:24;101810.88;;;15.54;100.00
65880;BME280;52661;51.364;6.054;2023-05-23T10:39:21;101813.63;;;15.44;100.00
65880;BME280;52661;51.364;6.054;2023-05-23T10:41:55;101811.31;;;15.10;100.00
65880;BME280;52661;51.364;6.054;2023-05-23T10:44:28;101818.38;;;15.08;100.00
65880;BME280;52661;51.364;6.054;2023-05-23T10:47:03;101816.00;;;15.03;100.00
65880;BME280;52661;51.364;6.054;2023-05-23T10:49:42;101826.16;;;14.95;100.00
65880;BME280;52661;51.364;6.054;2023-05-23T10:52:10;101815.22;;;15.09;100.00
65880;BME280;52661;51.364;6.054;2023-05-23T10:54:36;101831.56;;;15.66;100.00
65880;BME280;52661;51.364;6.054;2023-05-23T10:57:05;101828.34;;;15.85;98.93
65880;BME280;52661;51.364;6.054;2023-05-23T10:59:31;101824.38;;;16.04;97.63
65880;BME280;52661;51.364;6.054;2023-05-23T11:01:59;101826.44;;;15.75;96.07
65880;BME280;52661;51.364;6.054;2023-05-23T11:04:25;101824.53;;;15.68;100.00
65880;BME280;52661;51.364;6.054;2023-05-23T11:06:55;101825.75;;;15.50;100.00
65880;BME280;52661;51.364;6.054;2023-05-23T11:09:21;101820.25;;;15.43;100.00
65880;BME280;52661;51.364;6.054;2023-05-23T11:15:17;101830.00;;;15.65;100.00
65880;BME280;52661;51.364;6.054;2023-05-23T11:17:17;101829.25;;;15.36;100.00
65880;BME280;52661;51.364;6.054;2023-05-23T11:19:55;101829.25;;;15.47;100.00
65880;BME280;52661;51.364;6.054;2023-05-23T11:22:26;101831.56;;;15.48;100.00
65880;BME280;52661;51.364;6.054;2023-05-23T11:24:53;101833.53;;;15.62;100.00
65880;BME280;52661;51.364;6.054;2023-05-23T11:27:26;101833.09;;;15.70;100.00
65880;BME280;52661;51.364;6.054;2023-05-23T11:30:12;101830.28;;;15.99;100.00
65880;BME280;52661;51.364;6.054;2023-05-23T11:32:37;101821.34;;;15.81;99.46
65880;BME280;52661;51.364;6.054;2023-05-23T11:35:05;101828.41;;;15.71;100.00
65880;BME280;52661;51.364;6.054;2023-05-23T11:37:31;101839.91;;;16.21;100.00
65880;BME280;52661;51.364;6.054;2023-05-23T11:39:57;101842.28;;;16.22;99.73
65880;BME280;52661;51.364;6.054;2023-05-23T11:42:23;101837.34;;;15.89;98.99
65880;BME280;52661;51.364;6.054;2023-05-23T11:44:49;101830.94;;;16.17;97.99
65880;BME280;52661;51.364;6.054;2023-05-23T11:47:16;101838.56;;;16.54;96.42
65880;BME280;52661;51.364;6.054;2023-05-23T11:49:44;101836.25;;;16.56;94.23
65880;BME280;52661;51.364;6.054;2023-05-23T11:52:09;101843.38;;;16.36;94.84
65880;BME280;52661;51.364;6.054;2023-05-23T11:54:35;101838.38;;;16.23;91.75
65880;BME280;52661;51.364;6.054;2023-05-23T11:57:00;101839.44;;;16.37;90.05
65880;BME280;52661;51.364;6.054;2023-05-23T11:59:26;101833.72;;;16.79;90.24
65880;BME280;52661;51.364;6.054;2023-05-23T12:01:53;101831.38;;;16.78;88.89
65880;BME280;52661;51.364;6.054;2023-05-23T12:04:18;101842.59;;;16.94;85.97
65880;BME280;52661;51.364;6.054;2023-05-23T12:06:48;101844.03;;;16.57;84.81
65880;BME280;52661;51.364;6.054;2023-05-23T12:09:14;101846.47;;;16.45;87.39
65880;BME280;52661;51.364;6.054;2023-05-23T12:11:41;101842.56;;;16.39;87.10
65880;BME280;52661;51.364;6.054;2023-05-23T12:14:08;101846.34;;;16.66;86.39
65880;BME280;52661;51.364;6.054;2023-05-23T12:16:34;101833.41;;;16.66;85.68
65880;BME280;52661;51.364;6.054;2023-05-23T12:19:01;101841.69;;;17.11;82.60
65880;BME280;52661;51.364;6.054;2023-05-23T12:21:43;101849.84;;;17.59;82.70
65880;BME280;52661;51.364;6.054;2023-05-23T12:24:19;101835.97;;;17.73;77.46
65880;BME280;52661;51.364;6.054;2023-05-23T12:26:49;101848.91;;;18.06;77.60
65880;BME280;52661;51.364;6.054;2023-05-23T12:29:17;101835.13;;;17.76;77.64
65880;BME280;52661;51.364;6.054;2023-05-23T12:31:43;101842.63;;;17.76;77.66
65880;BME280;52661;51.364;6.054;2023-05-23T12:34:10;101852.19;;;17.94;77.72
65880;BME280;52661;51.364;6.054;2023-05-23T12:36:35;101837.81;;;17.83;76.18
65880;BME280;52661;51.364;6.054;2023-05-23T12:39:03;101831.78;;;17.95;77.41
65880;BME280;52661;51.364;6.054;2023-05-23T12:41:29;101837.13;;;18.06;75.45
65880;BME280;52661;51.364;6.054;2023-05-23T12:43:56;101842.78;;;17.61;78.18
65880;BME280;52661;51.364;6.054;2023-05-23T12:46:22;101835.34;;;17.55;81.14
65880;BME280;52661;51.364;6.054;2023-05-23T12:48:48;101841.81;;;17.38;79.39
65880;BME280;52661;51.364;6.054;2023-05-23T12:51:14;101841.41;;;17.39;79.98
65880;BME280;52661;51.364;6.054;2023-05-23T12:53:40;101838.38;;;17.27;82.01